Schiller Park, Illinois
Current Conditions -  °F | °C
As of 4:51 AM on Saturday 25 Oct 2014 (Local Time) from KORD Reporting Station
Overcast Overcast  
Wind Chill: 57°   Ceiling: 900
Heat Index: 57°   Visibility: 7mi
Dew Point: 54°   Wind: 13mph
Humidity: 89%   Direction: 280°W
Pressure: 29.9"   Gusts: NA
Location:  41.95°N, 87.86°W
Report Text: KORD 250951Z 28011KT 7SM OVC009 14/12 A2990 RMK AO2 SLP124 T01390122
Loading
Personal Weather Stations






























Interactive Weather Map
Tropical Storm Tracking
New forecast layout! Learn more

10-Day Weather Forecast

Advertisements
Track Severe Weather on mobile